Airfield :
LOGIN :

Register | Disclaimer

   EN    FR    IT 

 










Legend :    VFR   Marginal VFR   IFR   Intensive IFR   Very Intensive IFR
Visi :
Ceiling :
>= 8 km
>= 3000ft
5 to 8 km
1000 to 3000 ft
1500m to 5 km
500 to 1000 ft
800 to 1500m
200 to 500 ft
< 800m
< 200 ft
Symbols :   Thunderstorms  Fog  Heavy snow  Heavy precipitations  Wind > 20 kt
SIGMETs :     Misc.  Thunderstorms  Icing  Turbulence  Mountain Waves  Volcanic Ashes







- Airport Elevation : 375 ft
- IATA code : MST


EHBK - Maastricht Aachen

CURRENT METAR :
  • 190755Z AUTO VRB03KT 9999 NCD 20/13 Q1019 NOSIG

EXPIRED METARs :
  • 190725Z AUTO 28004KT 200V310 9999 NCD 19/13 Q1019 NOSIG
  • 190655Z AUTO 24005KT 190V300 9999 NSC 18/13 Q1019 NOSIG
  • 190625Z AUTO 21005KT 9999 NCD 17/13 Q1019 NOSIG
  • 190555Z AUTO 20005KT 9999 NCD 16/13 Q1018 NOSIG
  • 190525Z AUTO 20005KT 160V220 9999 NCD 15/12 Q1018 NOSIG
  • 190455Z AUTO 20004KT 9999 NCD 14/12 Q1018 NOSIG

TAF TAF EHBK
Valid from the 19 at 06:00 until the 20 at 12:00 UTC


190447Z 1906/2012 27005KT CAVOK
No reported NOTAMs for that airfield.



MET'MAP, your aeronautical weather chart ! - Copyright ORBIFLY December 2007 - Disclaimer

ORBIFLY MET'MAP TEAM :

Programming & Development : Alexandra Zaïnal
Concept & Development : Baudouin d'Aumeries
Co-Development & Prog : Marc-Olivier Méhu
Technical & hardware support : Manuel Goepfert

Contact : metmap@orbifly.com




SOURCES & CREDITS :

   NOAA